Time;durP1;ratioP1;P1;durP2;ratioP2;P2;SDS_P1;SDS_P2;PMS_P1;PMS_P2;Temp;Humidity;BMP_temperature;BMP_pressure;BME280_temperature;BME280_humidity;BME280_pressure;Samples;Min_cycle;Max_cycle;Signal;HPM_P1;HPM_P2
2021/03/02 00:00:07;;;;;;;13.23;7.20;;;13.50;50.60;;;;;;6142708;29;20043;-82
2021/03/02 00:03:15;;;;;;;18.38;8.20;;;13.40;50.60;;;;;;6142717;29;20074;-83
2021/03/02 00:06:21;;;;;;;13.27;7.35;;;13.50;50.70;;;;;;6142375;29;20040;-82
2021/03/02 00:09:27;;;;;;;19.27;7.10;;;13.50;50.60;;;;;;6125519;28;20039;-83
2021/03/02 00:12:35;;;;;;;16.77;6.30;;;13.40;50.50;;;;;;6123544;29;20118;-81
2021/03/02 00:15:40;;;;;;;17.23;7.78;;;13.40;50.30;;;;;;6107465;29;20039;-83
2021/03/02 00:19:14;;;;;;;16.13;7.38;;;13.40;50.30;;;;;;6124465;29;20043;-83
2021/03/02 00:22:33;;;;;;;19.55;8.68;;;13.40;50.40;;;;;;6123060;29;20035;-83
2021/03/02 00:25:43;;;;;;;22.20;8.75;;;13.30;50.70;;;;;;6139552;29;20337;-82
2021/03/02 00:28:48;;;;;;;16.10;8.02;;;13.30;50.90;;;;;;6100413;29;20083;-82
2021/03/02 00:31:50;;;;;;;21.13;9.32;;;13.20;51.00;;;;;;6116602;29;20038;-82
2021/03/02 00:34:52;;;;;;;20.75;9.32;;;13.20;51.20;;;;;;6149640;28;20034;-83
2021/03/02 00:37:53;;;;;;;21.40;9.07;;;13.10;51.20;;;;;;6154614;28;20043;-83
2021/03/02 00:40:54;;;;;;;20.45;8.60;;;13.10;51.40;;;;;;6187075;28;20100;-83
2021/03/02 00:43:56;;;;;;;25.35;9.57;;;13.00;51.60;;;;;;6164323;28;20034;-83
2021/03/02 00:46:57;;;;;;;20.20;8.75;;;12.90;51.80;;;;;;6180753;28;20120;-83
2021/03/02 00:49:58;;;;;;;18.08;8.52;;;12.90;52.00;;;;;;6162719;28;20575;-82
2021/03/02 00:53:00;;;;;;;18.15;7.97;;;12.80;52.10;;;;;;6156245;28;20086;-83
2021/03/02 00:56:01;;;;;;;22.35;8.40;;;12.80;52.30;;;;;;6161375;28;20058;-82
2021/03/02 00:59:03;;;;;;;23.20;8.95;;;12.70;52.50;;;;;;6138050;28;20049;-82
2021/03/02 01:02:04;;;;;;;18.90;8.02;;;12.70;52.70;;;;;;6193634;28;20045;-83
2021/03/02 01:05:06;;;;;;;19.92;8.35;;;12.60;52.80;;;;;;6155157;28;20410;-83
2021/03/02 01:08:10;;;;;;;21.13;8.68;;;12.50;53.00;;;;;;6151448;28;20129;-83
2021/03/02 01:11:15;;;;;;;22.15;9.40;;;12.50;53.60;;;;;;6184266;28;20102;-83
2021/03/02 01:14:16;;;;;;;18.83;8.45;;;12.50;53.20;;;;;;6178259;28;20031;-82
2021/03/02 01:17:17;;;;;;;17.35;7.65;;;12.50;53.20;;;;;;6191463;28;20042;-83
2021/03/02 01:20:18;;;;;;;16.15;8.30;;;12.50;53.20;;;;;;6176268;28;20035;-83
2021/03/02 01:23:21;;;;;;;18.60;8.75;;;12.50;53.30;;;;;;6160921;28;20050;-83
2021/03/02 01:26:22;;;;;;;17.45;7.43;;;12.50;53.30;;;;;;6156454;28;20045;-83
2021/03/02 01:29:23;;;;;;;21.77;7.63;;;12.40;53.20;;;;;;6153767;28;20049;-83
2021/03/02 01:32:24;;;;;;;16.85;7.75;;;12.40;53.20;;;;;;6162303;28;20035;-83
2021/03/02 01:35:25;;;;;;;19.02;8.38;;;12.40;53.40;;;;;;6131126;28;20377;-83
2021/03/02 01:38:26;;;;;;;17.83;7.30;;;12.40;53.40;;;;;;6127509;28;20030;-83
2021/03/02 01:41:27;;;;;;;19.80;7.50;;;12.30;53.50;;;;;;6179129;28;20043;-83
2021/03/02 01:44:29;;;;;;;19.10;8.63;;;12.30;53.60;;;;;;6167190;28;20478;-83
2021/03/02 01:47:30;;;;;;;20.92;8.45;;;12.20;53.70;;;;;;6182158;28;20072;-83
2021/03/02 01:50:31;;;;;;;23.15;7.78;;;12.20;53.80;;;;;;6172483;28;20038;-82
2021/03/02 01:53:32;;;;;;;18.48;7.20;;;12.20;53.80;;;;;;6183794;28;20125;-82
2021/03/02 01:56:33;;;;;;;16.52;7.03;;;12.20;53.80;;;;;;6201140;28;20042;-82
2021/03/02 01:59:34;;;;;;;18.42;7.47;;;12.20;53.80;;;;;;6183477;28;20502;-83
2021/03/02 02:03:02;;;;;;;17.17;6.88;;;12.10;54.30;;;;;;6197238;28;20081;-83
2021/03/02 02:06:25;;;;;;;12.32;6.90;;;12.10;53.60;;;;;;6197235;28;20434;-84
2021/03/02 02:09:31;;;;;;;15.85;7.43;;;12.10;53.60;;;;;;6179994;28;20042;-84
2021/03/02 02:12:37;;;;;;;24.85;7.95;;;12.10;53.60;;;;;;6147993;28;20046;-82
2021/03/02 02:15:40;;;;;;;23.08;7.20;;;12.10;53.60;;;;;;6154079;28;20035;-82
2021/03/02 02:18:43;;;;;;;25.70;8.15;;;12.10;53.70;;;;;;6156627;28;20039;-83
2021/03/02 02:22:02;;;;;;;26.38;7.82;;;12.10;53.80;;;;;;6154729;28;20383;-84
2021/03/02 02:25:13;;;;;;;24.95;8.20;;;12.10;53.80;;;;;;6138746;28;20093;-82
2021/03/02 02:28:17;;;;;;;20.83;8.20;;;12.10;53.80;;;;;;6160535;28;20082;-82
2021/03/02 02:31:19;;;;;;;18.05;8.25;;;12.10;53.80;;;;;;6167048;28;20043;-82
2021/03/02 02:34:22;;;;;;;15.38;8.27;;;12.10;53.90;;;;;;6175278;28;20035;-83
2021/03/02 02:37:28;;;;;;;17.45;8.07;;;12.00;54.00;;;;;;6171808;28;20059;-82
2021/03/02 02:40:30;;;;;;;22.20;8.30;;;12.00;54.10;;;;;;6156807;28;20042;-84
2021/03/02 02:43:34;;;;;;;21.33;8.43;;;12.00;54.10;;;;;;6167409;28;20523;-85
2021/03/02 02:46:35;;;;;;;20.15;9.05;;;11.90;54.20;;;;;;6179896;28;20046;-83
2021/03/02 02:49:55;;;;;;;30.10;8.40;;;11.90;54.30;;;;;;6157559;28;20480;-83
2021/03/02 02:52:58;;;;;;;22.35;9.18;;;11.80;54.50;;;;;;6139859;28;20041;-83
2021/03/02 02:56:02;;;;;;;20.35;8.77;;;11.70;54.60;;;;;;6105735;28;20512;-83
2021/03/02 02:59:07;;;;;;;18.85;8.65;;;11.70;54.80;;;;;;6172467;28;20038;-84
2021/03/02 03:02:19;;;;;;;15.57;7.72;;;11.70;54.90;;;;;;6156661;28;20112;-83
2021/03/02 03:05:23;;;;;;;17.90;8.00;;;11.70;55.00;;;;;;6171268;28;20118;-83
2021/03/02 03:08:32;;;;;;;22.50;8.25;;;11.60;55.10;;;;;;6164044;28;20042;-83
2021/03/02 03:11:49;;;;;;;25.58;9.68;;;11.60;55.20;;;;;;6165134;28;20034;-84
2021/03/02 03:15:02;;;;;;;21.90;9.35;;;11.60;55.30;;;;;;6179698;28;20053;-83
2021/03/02 03:18:11;;;;;;;24.20;8.77;;;11.60;55.30;;;;;;6165879;28;20125;-84
2021/03/02 03:21:13;;;;;;;23.70;9.07;;;11.50;55.30;;;;;;6198681;28;20530;-83
2021/03/02 03:24:16;;;;;;;32.30;8.95;;;11.60;55.30;;;;;;6181570;28;20086;-84
2021/03/02 03:27:18;;;;;;;18.85;8.70;;;11.60;55.30;;;;;;6183980;28;20039;-83
2021/03/02 03:30:22;;;;;;;25.88;9.38;;;11.60;55.40;;;;;;6159142;28;20046;-83
2021/03/02 03:33:25;;;;;;;21.27;8.13;;;11.50;55.40;;;;;;6192706;28;20057;-83
2021/03/02 03:36:29;;;;;;;22.83;8.70;;;11.50;55.50;;;;;;6182549;28;20049;-83
2021/03/02 03:39:30;;;;;;;19.15;8.10;;;11.50;55.50;;;;;;6160460;28;20096;-83
2021/03/02 03:42:31;;;;;;;25.58;8.65;;;11.50;55.50;;;;;;6118486;29;20043;-84
2021/03/02 03:45:32;;;;;;;20.95;9.18;;;11.50;55.50;;;;;;6133544;29;20118;-85
2021/03/02 03:48:33;;;;;;;21.58;8.52;;;11.50;55.40;;;;;;6149787;29;20045;-83
2021/03/02 03:51:36;;;;;;;20.50;7.90;;;11.50;55.30;;;;;;6128538;29;20048;-85
2021/03/02 03:54:38;;;;;;;26.23;9.85;;;11.50;55.30;;;;;;6147410;29;20122;-84
2021/03/02 03:57:39;;;;;;;24.30;9.05;;;11.50;55.30;;;;;;6113458;29;20047;-84
2021/03/02 04:00:41;;;;;;;22.85;8.45;;;11.50;55.40;;;;;;6129750;29;20070;-85
2021/03/02 04:03:42;;;;;;;23.70;7.95;;;11.50;55.50;;;;;;6123304;29;20054;-85
2021/03/02 04:06:44;;;;;;;21.73;8.35;;;11.40;55.50;;;;;;6123616;29;20047;-83
2021/03/02 04:09:45;;;;;;;18.42;8.77;;;11.40;55.60;;;;;;6114208;29;21114;-85
2021/03/02 04:12:47;;;;;;;18.13;8.45;;;11.30;55.70;;;;;;6139116;29;20050;-82
2021/03/02 04:15:48;;;;;;;23.10;8.40;;;11.30;55.80;;;;;;6144223;29;20043;-84
2021/03/02 04:18:50;;;;;;;24.17;10.25;;;11.20;55.90;;;;;;6143729;29;20039;-83
2021/03/02 04:21:51;;;;;;;21.05;10.15;;;11.20;55.90;;;;;;6141269;29;20050;-84
2021/03/02 04:24:52;;;;;;;20.13;9.02;;;11.20;55.90;;;;;;6139674;29;20039;-83
2021/03/02 04:27:53;;;;;;;20.92;9.52;;;11.20;56.00;;;;;;6131221;29;20059;-84
2021/03/02 04:30:55;;;;;;;22.88;9.98;;;11.30;56.00;;;;;;6138255;29;20039;-83
2021/03/02 04:33:56;;;;;;;24.02;9.27;;;11.30;56.00;;;;;;6139071;29;20031;-84
2021/03/02 04:36:56;;;;;;;24.63;9.93;;;11.20;55.90;;;;;;6157146;29;20157;-84
2021/03/02 04:39:57;;;;;;;22.92;8.98;;;11.20;56.00;;;;;;6132861;28;20088;-84
2021/03/02 04:42:58;;;;;;;16.42;8.30;;;11.10;56.00;;;;;;6140129;29;20094;-84
2021/03/02 04:45:59;;;;;;;21.27;9.40;;;11.10;56.00;;;;;;6135729;29;20031;-84
2021/03/02 04:49:00;;;;;;;21.25;9.10;;;11.10;56.10;;;;;;6143877;29;20034;-84
2021/03/02 04:52:01;;;;;;;20.77;8.35;;;11.10;56.10;;;;;;6140386;29;20058;-84
2021/03/02 04:55:04;;;;;;;20.38;8.85;;;11.00;56.20;;;;;;6140649;29;20039;-84
2021/03/02 04:58:05;;;;;;;28.00;9.63;;;11.00;56.30;;;;;;6139561;29;20046;-82
2021/03/02 05:01:06;;;;;;;19.95;10.18;;;11.00;56.30;;;;;;6138014;29;20031;-84
2021/03/02 05:04:07;;;;;;;28.60;10.38;;;10.90;56.50;;;;;;6144741;29;20039;-83
2021/03/02 05:07:08;;;;;;;22.40;9.43;;;10.90;56.70;;;;;;6127728;28;20075;-84
2021/03/02 05:10:09;;;;;;;32.58;11.98;;;10.90;56.80;;;;;;6129542;29;20051;-84
2021/03/02 05:13:10;;;;;;;21.30;9.13;;;10.80;57.00;;;;;;6142347;29;20041;-85
2021/03/02 05:16:12;;;;;;;19.40;9.32;;;10.80;57.00;;;;;;6132934;29;20028;-84
2021/03/02 05:19:14;;;;;;;20.13;8.68;;;10.80;57.10;;;;;;6142489;29;20440;-84
2021/03/02 05:22:16;;;;;;;21.10;10.43;;;10.80;57.20;;;;;;6125833;29;20040;-83
2021/03/02 05:25:18;;;;;;;30.50;10.18;;;10.70;57.20;;;;;;6141670;29;20126;-84
2021/03/02 05:28:19;;;;;;;24.58;10.70;;;10.70;57.30;;;;;;6104771;29;20047;-83
2021/03/02 05:31:20;;;;;;;20.48;9.63;;;10.70;57.30;;;;;;6134416;29;20382;-84
2021/03/02 05:34:21;;;;;;;26.00;10.25;;;10.70;57.30;;;;;;6135420;29;20082;-84
2021/03/02 05:37:22;;;;;;;30.10;9.68;;;10.70;57.30;;;;;;6130583;29;20047;-83
2021/03/02 05:40:24;;;;;;;19.90;9.98;;;10.70;57.30;;;;;;6157316;28;20094;-83
2021/03/02 05:43:26;;;;;;;20.50;9.63;;;10.60;57.30;;;;;;6151979;28;20063;-83
2021/03/02 05:46:28;;;;;;;22.98;8.85;;;10.70;57.30;;;;;;6143936;28;20043;-84
2021/03/02 05:49:29;;;;;;;22.35;9.27;;;10.70;57.20;;;;;;6176251;28;20078;-85
2021/03/02 05:52:31;;;;;;;21.65;9.20;;;10.70;57.20;;;;;;6158901;28;20039;-83
2021/03/02 05:55:36;;;;;;;25.05;9.50;;;10.60;57.20;;;;;;6142158;28;20045;-83
2021/03/02 05:58:38;;;;;;;18.00;9.77;;;10.60;57.30;;;;;;6137609;28;20028;-83
2021/03/02 06:01:39;;;;;;;28.90;11.10;;;10.50;57.30;;;;;;6119183;28;20043;-82
2021/03/02 06:04:41;;;;;;;27.42;10.43;;;10.50;57.50;;;;;;6146904;28;20031;-83
2021/03/02 06:07:42;;;;;;;24.55;9.75;;;10.50;57.50;;;;;;6140441;28;20035;-81
2021/03/02 06:10:43;;;;;;;24.92;10.40;;;10.50;57.60;;;;;;6135008;29;20031;-80
2021/03/02 06:13:44;;;;;;;29.80;10.18;;;10.40;57.50;;;;;;6121395;29;20138;-82
2021/03/02 06:16:51;;;;;;;23.58;10.05;;;10.40;57.60;;;;;;6123198;29;20032;-81
2021/03/02 06:19:52;;;;;;;26.15;9.57;;;10.30;57.70;;;;;;6150091;28;20068;-81
2021/03/02 06:22:53;;;;;;;25.60;10.25;;;10.30;57.80;;;;;;6152558;29;20058;-81
2021/03/02 06:25:56;;;;;;;21.38;9.70;;;10.30;58.00;;;;;;6151226;29;20058;-80
2021/03/02 06:29:00;;;;;;;32.67;9.27;;;10.20;58.00;;;;;;6140036;28;20548;-82
2021/03/02 06:32:02;;;;;;;32.38;10.38;;;10.20;58.00;;;;;;6140003;28;20050;-79
2021/03/02 06:35:03;;;;;;;22.52;9.50;;;10.30;58.00;;;;;;6154719;28;20051;-81
2021/03/02 06:38:05;;;;;;;29.10;10.13;;;10.30;57.90;;;;;;6138687;28;20035;-79
2021/03/02 06:41:19;;;;;;;23.80;9.93;;;10.30;57.90;;;;;;6131953;28;20140;-78
2021/03/02 06:44:29;;;;;;;20.10;9.18;;;10.30;57.90;;;;;;6163397;28;20031;-80
2021/03/02 06:47:42;;;;;;;20.05;9.13;;;10.30;57.90;;;;;;6140335;28;20039;-81
2021/03/02 06:50:44;;;;;;;26.98;9.50;;;10.40;57.90;;;;;;6157682;28;20042;-81
2021/03/02 06:54:05;;;;;;;24.02;8.93;;;10.40;57.80;;;;;;6152883;28;20118;-80
2021/03/02 06:57:06;;;;;;;17.75;8.65;;;10.50;57.80;;;;;;6198945;28;20045;-80
2021/03/02 07:00:07;;;;;;;24.92;9.18;;;10.50;57.60;;;;;;6169788;28;20096;-78
2021/03/02 07:03:37;;;;;;;21.80;9.73;;;10.50;57.60;;;;;;6163918;28;20039;-78
2021/03/02 07:06:39;;;;;;;21.80;9.80;;;10.50;58.10;;;;;;6148716;28;20571;-81
2021/03/02 07:09:41;;;;;;;24.25;10.32;;;10.50;57.50;;;;;;6157275;28;20415;-79
2021/03/02 07:12:45;;;;;;;31.13;10.60;;;10.60;57.40;;;;;;6156871;28;20042;-79
2021/03/02 07:15:47;;;;;;;26.02;9.32;;;10.60;57.30;;;;;;6176659;28;20117;-79
2021/03/02 07:18:50;;;;;;;24.77;10.80;;;10.60;57.30;;;;;;6167063;28;20058;-81
2021/03/02 07:21:55;;;;;;;22.88;9.15;;;10.60;57.20;;;;;;6160826;28;20039;-78
2021/03/02 07:25:01;;;;;;;19.85;8.60;;;10.60;57.20;;;;;;6142396;28;20483;-78
2021/03/02 07:28:04;;;;;;;30.48;10.20;;;10.60;57.10;;;;;;6139538;28;20050;-78
2021/03/02 07:31:06;;;;;;;28.15;9.20;;;10.60;57.10;;;;;;6141416;28;20035;-78
2021/03/02 07:34:09;;;;;;;22.77;9.13;;;10.60;57.20;;;;;;6172950;28;20038;-79
2021/03/02 07:37:10;;;;;;;26.02;9.15;;;10.60;57.30;;;;;;6141477;28;20110;-81
2021/03/02 07:40:14;;;;;;;17.88;8.30;;;10.60;57.30;;;;;;6177433;28;20038;-80
2021/03/02 07:43:38;;;;;;;29.58;10.80;;;10.60;57.30;;;;;;6181577;28;20380;-79
2021/03/02 07:46:39;;;;;;;23.00;9.80;;;10.70;57.30;;;;;;6176655;28;20031;-79
2021/03/02 07:49:40;;;;;;;25.25;9.85;;;10.80;57.20;;;;;;6159900;28;20038;-80
2021/03/02 07:52:41;;;;;;;21.48;11.05;;;10.90;57.10;;;;;;6171994;28;20041;-78
2021/03/02 07:55:43;;;;;;;24.77;9.68;;;11.00;57.00;;;;;;6184327;28;20062;-77
2021/03/02 07:59:04;;;;;;;31.73;10.73;;;11.00;56.80;;;;;;6173739;28;20042;-77
2021/03/02 08:02:22;;;;;;;27.80;8.90;;;11.10;56.70;;;;;;6165400;28;20027;-79
2021/03/02 08:05:49;;;;;;;26.20;10.52;;;11.10;56.30;;;;;;6084810;28;20101;-75
2021/03/02 08:08:51;;;;;;;19.58;8.80;;;11.20;56.30;;;;;;6153552;28;20041;-80
2021/03/02 08:11:54;;;;;;;48.13;12.27;;;11.30;56.20;;;;;;6131899;28;20035;-77
2021/03/02 08:14:55;;;;;;;35.47;11.00;;;11.40;56.00;;;;;;6140239;28;20065;-79
2021/03/02 08:18:26;;;;;;;31.65;11.77;;;11.40;55.90;;;;;;6155183;28;20514;-77
2021/03/02 08:21:31;;;;;;;;;;;11.50;55.90;;;;;;6158956;28;20038;-77
2021/03/02 08:25:11;;;;;;;23.05;9.35;;;11.70;55.70;;;;;;6154971;28;19920;-80
2021/03/02 08:28:12;;;;;;;16.40;6.60;;;11.80;55.30;;;;;;6049704;29;20041;-77
2021/03/02 08:31:13;;;;;;;30.77;10.70;;;11.80;55.00;;;;;;6026125;29;20061;-77
2021/03/02 08:34:18;;;;;;;24.13;9.50;;;11.80;54.80;;;;;;6017793;29;20098;-78
2021/03/02 08:37:19;;;;;;;21.15;9.45;;;11.90;54.80;;;;;;6032545;29;20108;-78
2021/03/02 08:40:45;;;;;;;32.22;9.93;;;12.00;54.70;;;;;;6023653;29;20059;-78
2021/03/02 08:43:46;;;;;;;21.33;8.85;;;12.10;54.20;;;;;;6029093;29;20041;-78
2021/03/02 08:46:55;;;;;;;25.20;9.43;;;12.20;53.50;;;;;;6037762;29;20166;-78
2021/03/02 08:49:57;;;;;;;21.92;9.10;;;12.30;53.50;;;;;;5996784;29;20387;-79
2021/03/02 08:53:00;;;;;;;22.45;9.80;;;12.60;53.60;;;;;;6065444;29;20108;-77
2021/03/02 08:56:06;;;;;;;17.25;9.07;;;12.60;53.40;;;;;;6058491;29;20045;-79
2021/03/02 08:59:14;;;;;;;16.63;7.78;;;12.80;53.10;;;;;;6084362;29;20141;-78
2021/03/02 09:02:16;;;;;;;20.42;9.23;;;12.90;52.70;;;;;;6129130;28;20030;-77
2021/03/02 09:05:18;;;;;;;33.53;9.38;;;13.10;52.60;;;;;;6171114;28;20042;-77
2021/03/02 09:08:21;;;;;;;18.27;8.98;;;13.20;52.40;;;;;;6163453;28;20042;-78
2021/03/02 09:11:26;;;;;;;24.58;9.20;;;13.30;52.10;;;;;;6170699;28;20133;-77
2021/03/02 09:14:33;;;;;;;21.30;9.70;;;13.40;51.90;;;;;;6164979;28;20034;-77
2021/03/02 09:17:34;;;;;;;20.60;8.43;;;13.60;51.80;;;;;;6165980;28;20097;-77
2021/03/02 09:20:36;;;;;;;16.88;8.98;;;13.70;51.50;;;;;;6146141;28;20031;-77
2021/03/02 09:23:44;;;;;;;20.98;9.27;;;13.80;51.40;;;;;;6173536;28;20093;-78
2021/03/02 09:26:53;;;;;;;21.30;9.05;;;13.80;50.80;;;;;;6177507;28;20061;-79
2021/03/02 09:29:54;;;;;;;28.60;10.90;;;13.90;50.40;;;;;;6180563;28;20042;-78
2021/03/02 09:32:55;;;;;;;21.85;10.23;;;14.00;50.10;;;;;;6172416;28;20464;-79
2021/03/02 09:35:57;;;;;;;21.42;9.60;;;14.00;50.00;;;;;;6189981;28;20083;-80
2021/03/02 09:38:59;;;;;;;22.45;9.75;;;14.10;50.00;;;;;;6182349;28;20047;-79
2021/03/02 09:42:00;;;;;;;26.63;10.07;;;14.20;49.80;;;;;;6159625;29;20035;-78
2021/03/02 09:45:17;;;;;;;19.27;9.60;;;14.30;49.70;;;;;;6148590;29;20433;-79
2021/03/02 09:48:19;;;;;;;28.65;9.55;;;14.50;49.50;;;;;;6118409;29;20110;-78
2021/03/02 09:51:34;;;;;;;23.45;10.30;;;14.60;49.10;;;;;;6119531;29;20039;-78
2021/03/02 09:54:35;;;;;;;35.35;10.93;;;14.80;49.20;;;;;;6115981;29;20040;-79
2021/03/02 09:58:14;;;;;;;32.47;11.82;;;14.90;48.20;;;;;;6116640;29;20538;-78
2021/03/02 10:01:26;;;;;;;45.78;15.80;;;15.00;48.10;;;;;;5972162;29;20061;-81
2021/03/02 10:04:27;;;;;;;75.45;25.73;;;15.10;47.70;;;;;;5987277;29;20038;-80
2021/03/02 10:07:40;;;;;;;43.15;13.27;;;15.30;47.20;;;;;;6004233;29;20033;-80
2021/03/02 10:10:40;;;;;;;35.50;12.65;;;15.40;47.10;;;;;;6005276;29;20569;-79
2021/03/02 10:13:44;;;;;;;31.23;11.98;;;15.50;46.70;;;;;;6006385;29;20046;-80
2021/03/02 10:16:54;;;;;;;32.13;11.63;;;15.70;46.20;;;;;;6010021;29;20034;-79
2021/03/02 10:20:07;;;;;;;26.33;11.18;;;15.90;45.90;;;;;;6011875;29;20038;-79
2021/03/02 10:23:08;;;;;;;26.60;12.02;;;16.00;45.40;;;;;;5992236;29;20512;-78
2021/03/02 10:26:10;;;;;;;32.83;13.40;;;16.20;45.10;;;;;;5992259;29;20042;-79
2021/03/02 10:29:12;;;;;;;33.78;13.70;;;16.30;44.70;;;;;;5991473;29;20054;-80
2021/03/02 10:32:15;;;;;;;28.60;12.80;;;16.40;44.10;;;;;;6005489;29;20045;-81
2021/03/02 10:35:19;;;;;;;32.50;11.63;;;16.50;44.00;;;;;;5986020;29;20042;-80
2021/03/02 10:38:24;;;;;;;27.63;10.68;;;16.60;43.40;;;;;;6103404;29;20043;-79
2021/03/02 10:41:30;;;;;;;31.63;10.88;;;16.90;42.70;;;;;;6098708;29;20122;-78
2021/03/02 10:44:32;;;;;;;21.77;9.98;;;17.10;42.10;;;;;;6121405;29;20415;-83
2021/03/02 10:47:34;;;;;;;47.88;17.88;;;17.40;41.70;;;;;;6095391;29;20175;-80
2021/03/02 10:50:38;;;;;;;33.83;13.90;;;17.60;41.00;;;;;;6115782;28;20130;-81
2021/03/02 10:53:42;;;;;;;27.70;11.57;;;17.90;40.50;;;;;;6115831;28;20486;-81
2021/03/02 10:56:49;;;;;;;26.50;11.32;;;18.20;39.80;;;;;;6153655;28;20042;-80
2021/03/02 10:59:50;;;;;;;31.95;10.32;;;18.30;39.20;;;;;;6137744;29;20086;-80
2021/03/02 11:03:07;;;;;;;24.92;9.85;;;18.60;38.60;;;;;;6100856;28;20047;-81
2021/03/02 11:06:17;;;;;;;16.63;8.88;;;18.80;38.40;;;;;;6154119;28;20037;-82
2021/03/02 11:09:25;;;;;;;28.27;9.05;;;19.00;38.00;;;;;;6133223;29;20047;-81
2021/03/02 11:12:26;;;;;;;26.47;10.93;;;19.20;37.10;;;;;;6136026;29;20035;-81
2021/03/02 11:15:27;;;;;;;33.72;10.25;;;19.40;36.50;;;;;;6134343;29;20035;-82
2021/03/02 11:18:31;;;;;;;21.15;9.23;;;19.60;35.80;;;;;;6110940;29;20090;-81
2021/03/02 11:21:43;;;;;;;24.40;10.02;;;19.80;35.20;;;;;;6117090;29;20100;-80
2021/03/02 11:24:44;;;;;;;22.35;10.45;;;20.00;34.80;;;;;;6123723;28;20039;-81
2021/03/02 11:27:46;;;;;;;34.72;10.52;;;20.00;34.50;;;;;;6123039;29;20046;-80
2021/03/02 11:30:47;;;;;;;27.35;10.40;;;20.00;34.50;;;;;;6110817;29;20036;-81
2021/03/02 11:33:51;;;;;;;29.25;10.90;;;20.10;34.20;;;;;;6136709;29;20117;-80
2021/03/02 11:36:52;;;;;;;22.48;9.85;;;20.10;34.00;;;;;;6122776;29;20462;-82
2021/03/02 11:39:54;;;;;;;21.92;9.55;;;20.20;34.20;;;;;;6086128;29;20039;-82
2021/03/02 11:42:56;;;;;;;28.50;9.55;;;20.50;34.10;;;;;;6122126;29;20039;-82
2021/03/02 11:45:59;;;;;;;17.08;7.68;;;20.70;33.60;;;;;;6138529;28;20098;-84
2021/03/02 11:49:03;;;;;;;20.80;7.28;;;20.90;33.00;;;;;;6115409;29;20110;-80
2021/03/02 11:52:07;;;;;;;23.00;7.43;;;21.20;32.00;;;;;;6124679;29;20488;-82
2021/03/02 11:55:24;;;;;;;11.43;5.63;;;21.40;31.10;;;;;;6115080;29;20039;-81
2021/03/02 11:58:34;;;;;;;11.05;4.95;;;21.60;30.60;;;;;;6134736;29;20066;-81
2021/03/02 12:01:38;;;;;;;10.38;4.88;;;21.80;29.70;;;;;;6143279;29;20054;-81
2021/03/02 12:04:40;;;;;;;17.83;5.28;;;22.30;28.60;;;;;;6129865;28;20035;-80
2021/03/02 12:07:41;;;;;;;15.15;5.60;;;22.60;28.00;;;;;;6099228;28;20035;-81
2021/03/02 12:10:43;;;;;;;16.40;6.28;;;22.60;27.90;;;;;;6134391;28;20049;-82
2021/03/02 12:13:45;;;;;;;18.50;5.95;;;22.40;27.80;;;;;;6122463;29;20040;-83
2021/03/02 12:16:53;;;;;;;22.05;7.13;;;22.20;28.20;;;;;;6119547;29;20024;-80
2021/03/02 12:19:57;;;;;;;13.60;5.07;;;22.10;28.60;;;;;;6096547;29;20012;-82
2021/03/02 12:22:59;;;;;;;17.50;5.10;;;22.00;28.50;;;;;;6126401;29;20023;-83
2021/03/02 12:26:01;;;;;;;16.77;4.88;;;22.10;28.50;;;;;;6133319;28;20078;-81
2021/03/02 12:29:02;;;;;;;12.02;4.72;;;21.90;28.30;;;;;;6123999;29;20090;-82
2021/03/02 12:32:07;;;;;;;13.38;4.88;;;21.70;28.40;;;;;;6134641;29;20492;-82
2021/03/02 12:35:09;;;;;;;15.13;5.07;;;21.80;28.30;;;;;;6149403;29;20046;-83
2021/03/02 12:38:11;;;;;;;14.30;4.90;;;21.80;28.40;;;;;;6125880;28;20143;-83
2021/03/02 12:41:12;;;;;;;18.33;4.63;;;22.00;28.40;;;;;;6090160;29;20066;-82
2021/03/02 12:44:16;;;;;;;25.08;4.55;;;22.00;28.40;;;;;;6125797;28;20496;-82
2021/03/02 12:47:20;;;;;;;14.57;4.65;;;21.90;28.60;;;;;;6128809;28;20039;-82
2021/03/02 12:50:24;;;;;;;14.18;4.85;;;21.90;28.60;;;;;;6128780;29;20059;-80
2021/03/02 12:53:25;;;;;;;14.27;4.95;;;21.80;28.70;;;;;;6125541;28;20066;-80
2021/03/02 12:56:27;;;;;;;13.88;4.50;;;21.80;29.00;;;;;;6136033;28;20063;-81
2021/03/02 12:59:28;;;;;;;17.45;4.55;;;21.60;29.00;;;;;;6130923;28;20483;-80
2021/03/02 13:02:30;;;;;;;10.25;3.90;;;21.50;29.20;;;;;;6136890;29;20059;-80
2021/03/02 13:05:32;;;;;;;8.63;3.35;;;21.40;29.40;;;;;;6125638;28;20031;-80
2021/03/02 13:08:40;;;;;;;8.68;3.20;;;21.30;29.50;;;;;;6128657;28;20111;-81
2021/03/02 13:11:47;;;;;;;12.05;3.38;;;21.10;29.50;;;;;;6116475;29;20039;-80
2021/03/02 13:14:53;;;;;;;10.43;3.55;;;21.00;29.80;;;;;;6115387;29;20062;-79
2021/03/02 13:17:58;;;;;;;12.25;3.72;;;20.90;29.90;;;;;;6130678;29;20591;-81
2021/03/02 13:20:59;;;;;;;10.85;3.50;;;20.80;29.80;;;;;;6143995;29;20051;-80
2021/03/02 13:24:04;;;;;;;6.78;3.17;;;20.60;29.80;;;;;;6185675;28;20057;-82
2021/03/02 13:27:11;;;;;;;10.15;2.92;;;20.40;30.00;;;;;;6178939;28;20446;-81
2021/03/02 13:30:25;;;;;;;20.83;3.30;;;20.30;30.30;;;;;;6206984;28;20113;-79
2021/03/02 13:33:32;;;;;;;9.05;3.25;;;20.20;30.70;;;;;;6202193;28;20042;-80
2021/03/02 13:36:38;;;;;;;7.37;3.07;;;20.20;30.80;;;;;;6157705;28;20053;-80
2021/03/02 13:39:46;;;;;;;9.85;2.63;;;20.20;30.90;;;;;;6151467;28;20587;-80
2021/03/02 13:42:53;;;;;;;12.13;3.83;;;20.20;31.00;;;;;;6146298;29;20039;-80
2021/03/02 13:45:56;;;;;;;12.27;2.90;;;20.20;30.90;;;;;;6113504;29;20027;-81
2021/03/02 13:49:01;;;;;;;9.50;2.60;;;20.30;30.80;;;;;;6136518;29;20051;-81
2021/03/02 13:52:08;;;;;;;10.70;2.67;;;20.20;30.60;;;;;;6131663;29;20492;-82
2021/03/02 13:55:29;;;;;;;6.57;2.88;;;20.20;30.70;;;;;;6054359;29;20143;-82
2021/03/02 13:58:33;;;;;;;12.63;2.85;;;20.20;30.70;;;;;;6097589;29;20428;-81
2021/03/02 14:01:36;;;;;;;10.70;3.40;;;20.30;30.80;;;;;;6106394;28;20052;-82
2021/03/02 14:04:46;;;;;;;10.60;3.35;;;20.30;30.80;;;;;;6127177;29;20420;-80
2021/03/02 14:07:59;;;;;;;7.43;2.70;;;20.20;30.80;;;;;;6130233;29;20043;-81
2021/03/02 14:11:00;;;;;;;14.13;3.75;;;20.20;30.80;;;;;;6134223;28;20051;-82
2021/03/02 14:14:08;;;;;;;10.88;3.67;;;20.10;30.80;;;;;;6137149;28;20031;-81
2021/03/02 14:17:13;;;;;;;14.93;3.20;;;20.00;30.80;;;;;;6136248;28;20043;-83
2021/03/02 14:20:16;;;;;;;10.23;3.22;;;20.00;30.90;;;;;;6125490;28;20035;-82
2021/03/02 14:23:21;;;;;;;13.82;2.65;;;20.00;31.00;;;;;;6139728;28;20042;-83
2021/03/02 14:26:25;;;;;;;10.10;3.05;;;20.00;31.10;;;;;;6118862;28;20186;-80
2021/03/02 14:29:29;;;;;;;11.55;2.95;;;20.00;31.10;;;;;;6092621;28;20054;-81
2021/03/02 14:32:38;;;;;;;6.18;2.95;;;20.00;31.10;;;;;;6132402;28;20035;-81
2021/03/02 14:35:43;;;;;;;9.98;3.13;;;20.10;31.00;;;;;;6126070;28;20031;-80
2021/03/02 14:38:44;;;;;;;6.15;2.53;;;20.10;30.70;;;;;;6128569;28;20063;-79
2021/03/02 14:41:55;;;;;;;9.68;2.65;;;20.10;30.60;;;;;;6136359;28;20052;-79
2021/03/02 14:45:04;;;;;;;6.75;2.35;;;20.10;30.70;;;;;;6159795;28;20105;-78
2021/03/02 14:48:47;;;;;;;5.22;2.17;;;20.00;30.10;;;;;;6132383;28;20134;-80
2021/03/02 14:51:53;;;;;;;9.02;2.45;;;19.90;30.20;;;;;;6026184;29;20033;-80
2021/03/02 14:55:04;;;;;;;9.60;2.63;;;19.80;30.30;;;;;;6048030;29;20053;-82
2021/03/02 14:58:18;;;;;;;8.65;2.60;;;19.70;30.20;;;;;;6012014;29;20033;-79
2021/03/02 15:01:21;;;;;;;4.93;2.17;;;19.70;30.00;;;;;;6013690;29;20454;-80
2021/03/02 15:04:25;;;;;;;6.20;2.95;;;19.70;30.00;;;;;;6060225;29;20028;-78
2021/03/02 15:07:29;;;;;;;4.82;2.08;;;19.70;30.00;;;;;;6054527;29;20115;-79
2021/03/02 15:10:31;;;;;;;14.20;2.50;;;19.70;30.00;;;;;;6050258;29;20048;-79
2021/03/02 15:13:39;;;;;;;8.98;2.42;;;19.70;30.50;;;;;;6078276;29;20037;-81
2021/03/02 15:16:48;;;;;;;5.00;2.58;;;19.70;29.90;;;;;;6060180;29;20044;-81
2021/03/02 15:19:49;;;;;;;7.28;2.25;;;19.80;29.90;;;;;;6076973;29;20044;-80
2021/03/02 15:22:50;;;;;;;5.70;2.63;;;19.80;29.80;;;;;;6149312;28;20188;-80
2021/03/02 15:25:58;;;;;;;10.70;2.65;;;19.80;29.70;;;;;;6166877;28;20034;-79
2021/03/02 15:29:03;;;;;;;5.53;2.22;;;19.80;29.50;;;;;;6209492;28;20112;-82
2021/03/02 15:32:09;;;;;;;12.65;2.85;;;19.80;30.00;;;;;;6189851;28;20040;-78
2021/03/02 15:35:12;;;;;;;6.65;2.45;;;19.80;29.50;;;;;;6144605;28;20090;-80
2021/03/02 15:38:16;;;;;;;8.43;2.55;;;19.90;29.50;;;;;;6154136;28;20089;-81
2021/03/02 15:41:21;;;;;;;9.63;2.92;;;19.90;29.50;;;;;;6159896;28;20049;-80
2021/03/02 15:44:22;;;;;;;7.30;2.42;;;19.90;29.40;;;;;;6175773;28;20031;-80
2021/03/02 15:47:25;;;;;;;10.90;2.97;;;19.80;29.40;;;;;;6158996;28;20085;-81